createdAt,value
2019-01-27T00:00:44.756Z,90.36
2019-01-27T00:01:51.956Z,90.35
2019-01-27T00:02:58.503Z,90.33
2019-01-27T00:04:05.428Z,90.36
2019-01-27T00:05:12.331Z,90.35
2019-01-27T00:06:19.677Z,90.38
2019-01-27T00:07:25.992Z,90.37
2019-01-27T00:08:33.658Z,90.38
2019-01-27T00:09:39.869Z,90.36
2019-01-27T00:10:47.385Z,90.38
2019-01-27T00:11:53.933Z,90.38
2019-01-27T00:13:00.665Z,90.35
2019-01-27T00:14:07.809Z,90.34
2019-01-27T00:15:15.221Z,90.33
2019-01-27T00:16:21.703Z,90.33
2019-01-27T00:17:29.148Z,90.34
2019-01-27T00:18:35.491Z,90.34
2019-01-27T00:19:42.315Z,90.37
2019-01-27T00:20:49.065Z,90.35
2019-01-27T00:21:55.940Z,90.36
2019-01-27T00:23:02.615Z,90.41
2019-01-27T00:24:09.933Z,90.41
2019-01-27T00:25:17.120Z,90.40
2019-01-27T00:26:23.306Z,90.41
2019-01-27T00:27:31.218Z,90.39
2019-01-27T00:28:37.111Z,90.41
2019-01-27T00:29:44.000Z,90.43
2019-01-27T00:30:50.901Z,90.44
2019-01-27T00:31:57.927Z,90.44
2019-01-27T00:33:04.655Z,90.41
2019-01-27T00:34:11.492Z,90.42
2019-01-27T00:35:18.301Z,90.41
2019-01-27T00:36:25.236Z,90.39
2019-01-27T00:37:32.369Z,90.38
2019-01-27T00:38:39.092Z,90.37
2019-01-27T00:39:45.875Z,90.40
2019-01-27T00:40:52.751Z,90.42
2019-01-27T00:42:00.493Z,90.42
2019-01-27T00:43:07.294Z,90.40
2019-01-27T00:44:13.346Z,90.40
2019-01-27T00:45:21.741Z,90.41
2019-01-27T00:46:27.163Z,90.44
2019-01-27T00:47:33.937Z,90.41
2019-01-27T00:48:40.693Z,90.41
2019-01-27T00:49:47.488Z,90.39
2019-01-27T00:50:54.302Z,90.38
2019-01-27T00:52:01.132Z,90.39
2019-01-27T00:53:07.812Z,90.38
2019-01-27T00:54:14.593Z,90.36
2019-01-27T00:55:21.380Z,90.35
2019-01-27T00:56:28.196Z,90.36
2019-01-27T00:57:34.930Z,90.36
2019-01-27T00:58:41.743Z,90.37
2019-01-27T00:59:48.483Z,90.34
2019-01-27T01:00:55.800Z,90.36
2019-01-27T01:02:02.349Z,90.34
2019-01-27T01:03:09.252Z,90.31
2019-01-27T01:04:17.343Z,90.30
2019-01-27T01:05:23.840Z,90.35
2019-01-27T01:06:29.640Z,90.35
2019-01-27T01:07:37.394Z,90.37
2019-01-27T01:08:43.448Z,90.35
2019-01-27T01:09:50.211Z,90.37
2019-01-27T01:10:56.936Z,90.36
2019-01-27T01:12:03.690Z,90.38
2019-01-27T01:13:10.440Z,90.37
2019-01-27T01:14:17.235Z,90.38
2019-01-27T01:15:24.038Z,90.38
2019-01-27T01:16:30.908Z,90.37
2019-01-27T01:17:38.008Z,90.36
2019-01-27T01:18:44.657Z,90.35
2019-01-27T01:19:51.471Z,90.36
2019-01-27T01:20:58.202Z,90.40
2019-01-27T01:22:05.016Z,90.37
2019-01-27T01:23:11.792Z,90.42
2019-01-27T01:24:18.570Z,90.40
2019-01-27T01:25:25.383Z,90.43
2019-01-27T01:26:32.241Z,90.41
2019-01-27T01:27:39.111Z,90.40
2019-01-27T01:28:45.980Z,90.36
2019-01-27T01:29:52.855Z,90.37
2019-01-27T01:30:59.579Z,90.38
2019-01-27T01:32:06.367Z,90.38
2019-01-27T01:33:13.216Z,90.37
2019-01-27T01:34:20.068Z,90.39
2019-01-27T01:35:26.858Z,90.40
2019-01-27T01:36:33.643Z,90.38
2019-01-27T01:37:40.409Z,90.38
2019-01-27T01:38:47.172Z,90.37
2019-01-27T01:39:53.989Z,90.40
2019-01-27T01:41:00.756Z,90.42
2019-01-27T01:42:07.832Z,90.43
2019-01-27T01:43:14.647Z,90.44
2019-01-27T01:44:21.484Z,90.42
2019-01-27T01:45:28.252Z,90.46
2019-01-27T01:46:35.364Z,90.47
2019-01-27T01:47:49.876Z,90.49
2019-01-27T01:48:49.500Z,90.50
2019-01-27T01:49:57.581Z,90.51
2019-01-27T01:51:03.150Z,90.59
2019-01-27T01:52:10.089Z,90.64
2019-01-27T01:53:20.281Z,90.64
2019-01-27T01:54:24.957Z,90.63
2019-01-27T01:55:30.460Z,90.63
2019-01-27T01:56:37.231Z,90.70
2019-01-27T01:57:54.653Z,90.69
2019-01-27T01:59:01.213Z,90.68
2019-01-27T02:00:08.164Z,90.68
2019-01-27T02:01:15.029Z,90.65
2019-01-27T02:02:22.020Z,90.65
2019-01-27T02:03:29.233Z,90.64
2019-01-27T02:04:35.674Z,90.61
2019-01-27T02:05:51.846Z,90.61
2019-01-27T02:06:52.753Z,90.62
2019-01-27T02:07:56.744Z,90.61
2019-01-27T02:09:03.590Z,90.61
2019-01-27T02:10:11.363Z,90.62
2019-01-27T02:11:17.657Z,90.60
2019-01-27T02:12:25.209Z,90.61
2019-01-27T02:14:38.193Z,90.62
2019-01-27T02:15:46.700Z,90.60
2019-01-27T02:16:51.973Z,90.54
2019-01-27T02:18:02.184Z,90.52
2019-01-27T02:19:07.887Z,90.52
2019-01-27T02:20:12.976Z,90.50
2019-01-27T02:21:20.259Z,90.50
2019-01-27T02:22:26.552Z,90.50
2019-01-27T02:23:37.055Z,90.51
2019-01-27T02:24:43.961Z,90.51
2019-01-27T02:25:47.329Z,90.51
2019-01-27T02:26:54.248Z,90.51
2019-01-27T03:57:57.252Z,90.09
2019-01-27T03:59:04.344Z,89.89
2019-01-27T04:00:11.425Z,89.95
2019-01-27T04:01:18.360Z,89.96
2019-01-27T04:02:25.888Z,89.98
2019-01-27T04:03:33.079Z,89.99
2019-01-27T04:08:03.763Z,90.14
2019-01-27T04:10:17.516Z,90.25
2019-01-27T04:11:25.270Z,90.25
2019-01-27T04:12:31.583Z,90.29
2019-01-27T04:13:38.254Z,90.26
2019-01-27T04:14:44.869Z,90.28
2019-01-27T04:15:51.976Z,90.29
2019-01-27T04:16:59.036Z,90.28
2019-01-27T04:18:06.137Z,90.31
2019-01-27T04:19:13.111Z,90.35
2019-01-27T04:20:20.050Z,90.34
2019-01-27T04:22:33.628Z,90.31
2019-01-27T04:23:40.573Z,90.29
2019-01-27T04:24:47.769Z,90.30
2019-01-27T04:25:54.554Z,90.33
2019-01-27T04:27:01.481Z,90.35
2019-01-27T04:28:08.608Z,90.34
2019-01-27T04:29:15.525Z,90.34
2019-01-27T04:30:22.506Z,90.38
2019-01-27T04:31:29.538Z,90.34
2019-01-27T04:32:41.342Z,90.34
2019-01-27T04:33:43.743Z,90.36
2019-01-27T04:34:50.365Z,90.38
2019-01-27T04:35:57.432Z,90.43
2019-01-27T04:37:04.293Z,90.41
2019-01-27T04:38:11.245Z,90.42
2019-01-27T04:39:18.166Z,90.39
2019-01-27T04:40:24.826Z,90.37
2019-01-27T04:41:31.837Z,90.32
2019-01-27T04:42:38.912Z,90.32
2019-01-27T04:43:45.973Z,90.33
2019-01-27T04:44:52.931Z,90.30
2019-01-27T04:46:03.979Z,90.30
2019-01-27T04:47:06.735Z,90.25
2019-01-27T04:48:14.227Z,90.22
2019-01-27T04:49:20.859Z,90.19
2019-01-27T04:50:27.506Z,90.21
2019-01-27T04:51:34.339Z,90.19
2019-01-27T04:52:41.256Z,90.20
2019-01-27T04:53:48.249Z,90.14
2019-01-27T04:54:55.345Z,90.14
2019-01-27T04:56:02.388Z,90.11
2019-01-27T04:57:09.220Z,90.06
2019-01-27T04:58:18.426Z,90.10
2019-01-27T04:59:22.894Z,90.07
2019-01-27T05:00:29.971Z,90.10
2019-01-27T05:01:36.830Z,90.05
2019-01-27T05:02:43.958Z,90.05
2019-01-27T05:03:50.762Z,90.07
2019-01-27T05:04:57.679Z,90.05
2019-01-27T05:06:04.533Z,90.03
2019-01-27T05:07:11.421Z,90.01
2019-01-27T05:08:18.241Z,90.00
2019-01-27T05:09:25.215Z,89.96
2019-01-27T05:10:32.359Z,89.95
2019-01-27T05:11:39.250Z,89.90
2019-01-27T05:12:46.401Z,89.86
2019-01-27T05:13:53.450Z,89.89
2019-01-27T05:15:00.005Z,89.87
2019-01-27T05:16:06.956Z,89.88
2019-01-27T05:17:13.998Z,89.85
2019-01-27T05:18:20.914Z,89.91
2019-01-27T05:19:27.627Z,89.90
2019-01-27T05:20:34.467Z,89.87
2019-01-27T05:21:41.231Z,89.85
2019-01-27T05:22:48.104Z,89.77
2019-01-27T05:23:55.061Z,89.73
2019-01-27T05:25:01.956Z,89.69
2019-01-27T05:26:09.082Z,89.68
2019-01-27T05:27:15.856Z,89.65
2019-01-27T05:28:22.698Z,89.62
2019-01-27T05:29:29.512Z,89.59
2019-01-27T05:30:36.291Z,89.61
2019-01-27T05:31:43.459Z,89.57
2019-01-27T05:32:50.480Z,89.55
2019-01-27T05:33:57.293Z,89.53
2019-01-27T05:35:04.095Z,89.50
2019-01-27T05:36:10.947Z,89.49
2019-01-27T05:37:17.751Z,89.48
2019-01-27T05:38:24.584Z,89.46
2019-01-27T05:39:31.343Z,89.42
2019-01-27T05:40:38.229Z,89.41
2019-01-27T05:41:45.201Z,89.39
2019-01-27T05:42:52.219Z,89.36
2019-01-27T05:43:59.162Z,89.39
2019-01-27T05:45:06.161Z,89.43
2019-01-27T05:46:13.008Z,89.47
2019-01-27T05:47:19.971Z,89.51
2019-01-27T05:48:26.926Z,89.52
2019-01-27T05:49:33.745Z,89.53
2019-01-27T05:50:40.620Z,89.57
2019-01-27T05:51:47.505Z,89.57
2019-01-27T05:52:54.356Z,89.60
2019-01-27T05:54:01.261Z,89.62
2019-01-27T05:55:08.313Z,89.66
2019-01-27T05:56:15.425Z,89.67
2019-01-27T05:57:22.268Z,89.65
2019-01-27T05:58:29.094Z,89.66
2019-01-27T05:59:35.948Z,89.62
2019-01-27T06:00:42.732Z,89.59
2019-01-27T06:01:49.757Z,89.62
2019-01-27T06:02:56.661Z,89.55
2019-01-27T06:04:03.498Z,89.51
2019-01-27T06:05:10.288Z,89.44
2019-01-27T06:06:17.192Z,89.36
2019-01-27T06:07:24.002Z,89.26
2019-01-27T06:08:31.097Z,89.19
2019-01-27T06:09:37.946Z,89.13
2019-01-27T06:10:44.781Z,89.07
2019-01-27T06:11:51.720Z,88.98
2019-01-27T06:12:58.805Z,88.93
2019-01-27T06:14:05.650Z,88.85
2019-01-27T06:15:12.476Z,88.78
2019-01-27T06:16:19.556Z,88.71
2019-01-27T06:17:26.351Z,88.67
2019-01-27T06:18:38.235Z,88.65
2019-01-27T06:19:40.168Z,88.60
2019-01-27T06:20:47.047Z,88.54
2019-01-27T06:21:53.845Z,88.50
2019-01-27T06:23:00.672Z,88.43
2019-01-27T06:24:07.428Z,88.38
2019-01-27T06:25:14.247Z,88.35
2019-01-27T06:26:21.147Z,88.26
2019-01-27T06:27:27.969Z,88.21
2019-01-27T06:28:34.732Z,88.17
2019-01-27T06:29:41.508Z,88.09
2019-01-27T06:30:48.212Z,88.02
2019-01-27T06:31:55.000Z,87.96
2019-01-27T06:33:01.748Z,87.86
2019-01-27T06:34:08.597Z,87.82
2019-01-27T06:35:15.663Z,87.76
2019-01-27T06:36:22.471Z,87.72
2019-01-27T06:37:29.264Z,87.69
2019-01-27T06:38:36.028Z,87.63
2019-01-27T06:39:42.876Z,87.58
2019-01-27T06:40:49.894Z,87.54
2019-01-27T06:41:56.855Z,87.51
2019-01-27T06:43:03.600Z,87.45
2019-01-27T06:44:10.372Z,87.39
2019-01-27T06:45:17.274Z,87.35
2019-01-27T06:46:25.419Z,87.31
2019-01-27T06:47:30.899Z,87.26
2019-01-27T06:48:37.672Z,87.17
2019-01-27T06:49:44.420Z,87.12
2019-01-27T06:50:51.188Z,87.07
2019-01-27T06:51:57.997Z,87.03
2019-01-27T06:53:04.747Z,86.98
2019-01-27T06:54:11.783Z,86.91
2019-01-27T06:55:18.524Z,86.86
2019-01-27T06:56:25.387Z,86.83
2019-01-27T06:57:32.143Z,86.80
2019-01-27T06:58:38.920Z,86.78
2019-01-27T06:59:45.784Z,86.72
2019-01-27T07:00:52.432Z,86.69
2019-01-27T07:01:59.701Z,86.65
2019-01-27T07:03:06.363Z,86.61
2019-01-27T07:04:13.531Z,86.57
2019-01-27T07:05:20.324Z,86.54
2019-01-27T07:06:27.072Z,86.55
2019-01-27T07:07:34.071Z,86.53
2019-01-27T07:08:40.941Z,86.48
2019-01-27T07:09:47.947Z,86.44
2019-01-27T07:10:54.835Z,86.38
2019-01-27T07:12:01.667Z,86.34
2019-01-27T07:13:08.711Z,86.30
2019-01-27T07:14:20.846Z,86.24
2019-01-27T07:15:26.637Z,86.19
2019-01-27T07:16:33.504Z,86.14
2019-01-27T07:17:40.609Z,86.14
2019-01-27T07:18:47.558Z,86.09
2019-01-27T07:19:57.428Z,86.04
2019-01-27T07:21:06.417Z,85.99
2019-01-27T07:22:13.285Z,85.94
2019-01-27T07:23:19.963Z,85.94
2019-01-27T07:24:26.764Z,85.95
2019-01-27T07:25:33.548Z,85.93
2019-01-27T07:26:40.328Z,85.91
2019-01-27T07:27:47.344Z,85.92
2019-01-27T07:28:54.205Z,85.90
2019-01-27T07:30:01.170Z,85.85
2019-01-27T07:31:08.257Z,85.84
2019-01-27T07:32:14.933Z,85.91
2019-01-27T07:33:27.681Z,85.94
2019-01-27T07:34:34.811Z,85.95
2019-01-27T07:35:41.806Z,86.03
2019-01-27T07:36:49.049Z,86.08
2019-01-27T07:37:55.467Z,86.11
2019-01-27T07:39:02.501Z,86.16
2019-01-27T07:41:19.801Z,86.20
2019-01-27T07:42:26.344Z,86.22
2019-01-27T07:43:33.079Z,86.23
2019-01-27T07:44:39.882Z,86.27
2019-01-27T07:45:46.786Z,86.29
2019-01-27T07:46:53.644Z,86.30
2019-01-27T07:48:00.397Z,86.25
2019-01-27T07:49:07.471Z,86.25
2019-01-27T07:50:13.964Z,86.23
2019-01-27T07:51:20.820Z,86.25
2019-01-27T07:53:33.336Z,86.24
2019-01-27T07:54:45.033Z,86.17
2019-01-27T07:55:53.052Z,86.14
2019-01-27T08:00:20.088Z,86.17
2019-01-27T08:01:27.170Z,86.13
2019-01-27T08:02:33.950Z,86.14
2019-01-27T08:04:44.861Z,86.13
2019-01-27T08:05:51.919Z,86.14
2019-01-27T08:07:02.591Z,86.15
2019-01-27T08:08:10.914Z,86.19
2019-01-27T08:09:12.827Z,86.21
2019-01-27T08:10:19.965Z,86.24
2019-01-27T08:11:27.088Z,86.22
2019-01-27T08:12:33.885Z,86.22
2019-01-27T08:13:44.685Z,86.21
2019-01-27T08:14:51.829Z,86.20
2019-01-27T08:17:05.737Z,86.20
2019-01-27T08:18:12.464Z,86.22
2019-01-27T08:19:28.417Z,86.18
2019-01-27T08:21:42.031Z,86.29
2019-01-27T08:22:49.001Z,86.25
2019-01-27T08:23:55.927Z,86.26
2019-01-27T08:25:02.692Z,86.26
2019-01-27T08:26:20.606Z,86.24
2019-01-27T08:27:31.669Z,86.25
2019-01-27T08:28:34.475Z,86.25
2019-01-27T08:29:41.292Z,86.28
2019-01-27T08:30:57.310Z,86.29
2019-01-27T08:33:08.409Z,86.27
2019-01-27T08:34:15.400Z,86.29
2019-01-27T08:35:22.128Z,86.33
2019-01-27T08:36:28.838Z,86.31
2019-01-27T08:37:36.024Z,86.27
2019-01-27T08:38:42.900Z,86.27
2019-01-27T08:39:49.738Z,86.28
2019-01-27T08:42:02.377Z,86.34
2019-01-27T08:43:09.013Z,86.38
2019-01-27T08:44:16.926Z,86.36
2019-01-27T08:45:23.728Z,86.36
2019-01-27T08:46:30.285Z,86.34
2019-01-27T08:47:38.409Z,86.37
2019-01-27T08:48:44.073Z,86.36
2019-01-27T08:49:50.953Z,86.37
2019-01-27T08:50:58.587Z,86.36
2019-01-27T08:52:04.549Z,86.36
2019-01-27T08:53:11.532Z,86.34
2019-01-27T08:54:18.392Z,86.34
2019-01-27T08:55:25.328Z,86.35
2019-01-27T08:56:32.505Z,86.37
2019-01-27T08:57:40.144Z,86.41
2019-01-27T08:58:47.846Z,86.42
2019-01-27T08:59:52.722Z,86.47
2019-01-27T09:00:59.650Z,86.49
2019-01-27T09:02:06.433Z,86.49
2019-01-27T09:03:13.727Z,86.45
2019-01-27T09:04:20.365Z,86.40
2019-01-27T09:05:27.389Z,86.39
2019-01-27T09:06:34.884Z,86.34
2019-01-27T09:07:41.235Z,86.31
2019-01-27T09:08:48.204Z,86.26
2019-01-27T09:09:55.361Z,86.24
2019-01-27T09:11:02.443Z,86.20
2019-01-27T09:12:09.222Z,86.19
2019-01-27T09:13:16.357Z,86.18
2019-01-27T09:14:23.280Z,86.14
2019-01-27T09:15:30.156Z,86.10
2019-01-27T09:16:37.177Z,86.06
2019-01-27T09:17:44.257Z,86.07
2019-01-27T09:18:50.974Z,86.06
2019-01-27T09:19:57.815Z,86.04
2019-01-27T09:21:04.844Z,86.02
2019-01-27T09:22:12.062Z,86.01
2019-01-27T09:23:18.816Z,85.99
2019-01-27T09:24:25.758Z,86.01
2019-01-27T09:25:32.706Z,86.02
2019-01-27T09:26:39.676Z,86.00
2019-01-27T09:27:46.799Z,86.01
2019-01-27T09:28:53.610Z,85.98
2019-01-27T09:30:00.682Z,85.97
2019-01-27T09:31:07.676Z,85.98
2019-01-27T09:32:14.369Z,85.97
2019-01-27T09:33:21.303Z,86.00
2019-01-27T09:34:28.393Z,86.00
2019-01-27T09:35:35.609Z,86.01
2019-01-27T09:36:42.160Z,85.97
2019-01-27T09:37:49.071Z,85.96
2019-01-27T09:38:55.976Z,85.97
2019-01-27T09:40:09.169Z,85.96
2019-01-27T09:41:16.048Z,85.98
2019-01-27T09:42:23.123Z,85.97
2019-01-27T09:43:30.053Z,85.94
2019-01-27T09:44:36.936Z,85.91
2019-01-27T09:45:43.841Z,85.91
2019-01-27T09:46:50.515Z,85.92
2019-01-27T09:47:57.367Z,85.89
2019-01-27T09:49:04.988Z,85.87
2019-01-27T09:50:11.683Z,85.84
2019-01-27T09:51:18.438Z,85.82
2019-01-27T09:52:25.257Z,85.81
2019-01-27T09:53:31.905Z,85.80
2019-01-27T09:54:38.675Z,85.82
2019-01-27T09:55:45.665Z,85.83
2019-01-27T09:57:57.139Z,85.88
2019-01-27T09:59:03.981Z,85.86
2019-01-27T10:00:10.819Z,85.87
2019-01-27T10:01:17.715Z,85.86
2019-01-27T10:02:24.758Z,85.88
2019-01-27T10:03:31.731Z,85.89
2019-01-27T10:04:39.138Z,85.87
2019-01-27T10:05:45.866Z,85.88
2019-01-27T10:06:52.552Z,85.88
2019-01-27T10:07:59.424Z,85.90
2019-01-27T10:09:06.370Z,85.90
2019-01-27T10:10:13.362Z,85.84
2019-01-27T10:11:26.526Z,85.86
2019-01-27T10:12:27.177Z,85.89
2019-01-27T10:13:33.885Z,85.88
2019-01-27T10:14:40.764Z,85.89
2019-01-27T10:15:47.590Z,85.88
2019-01-27T10:16:54.416Z,85.86
2019-01-27T10:18:01.599Z,85.88
2019-01-27T10:19:08.475Z,85.87
2019-01-27T10:20:15.495Z,85.88
2019-01-27T10:21:22.225Z,85.90
2019-01-27T10:22:29.148Z,85.92
2019-01-27T10:23:35.873Z,85.91
2019-01-27T10:24:42.801Z,85.94
2019-01-27T10:25:55.621Z,85.97
2019-01-27T10:26:56.621Z,85.98
2019-01-27T10:28:03.639Z,86.00
2019-01-27T10:29:11.109Z,86.03
2019-01-27T10:30:17.821Z,86.03
2019-01-27T10:31:24.535Z,86.04
2019-01-27T10:32:31.321Z,86.06
2019-01-27T10:33:45.121Z,86.04
2019-01-27T10:35:58.923Z,86.08
2019-01-27T10:37:12.010Z,86.14
2019-01-27T10:38:13.854Z,86.12
2019-01-27T10:39:19.250Z,86.12
2019-01-27T10:40:26.142Z,86.11
2019-01-27T10:42:40.177Z,86.07
2019-01-27T10:43:47.321Z,86.11
2019-01-27T10:44:58.335Z,86.11
2019-01-27T10:47:12.746Z,86.15
2019-01-27T10:48:19.814Z,86.16
2019-01-27T10:49:26.705Z,86.10
2019-01-27T10:50:33.537Z,86.06
2019-01-27T10:51:40.439Z,86.05
2019-01-27T10:52:47.252Z,86.03
2019-01-27T10:53:53.936Z,85.99
2019-01-27T10:55:00.784Z,86.02
2019-01-27T10:56:07.688Z,86.00
2019-01-27T10:57:14.632Z,86.00
2019-01-27T10:58:21.481Z,86.01
2019-01-27T10:59:28.214Z,85.99
2019-01-27T11:00:35.372Z,86.00
2019-01-27T11:01:42.465Z,86.01
2019-01-27T11:02:49.308Z,86.01
2019-01-27T11:04:04.719Z,86.01
2019-01-27T11:05:03.142Z,86.01
2019-01-27T11:06:10.153Z,86.03
2019-01-27T11:07:17.000Z,86.10
2019-01-27T11:08:23.865Z,86.10
2019-01-27T11:09:30.744Z,86.15
2019-01-27T11:10:37.605Z,86.21
2019-01-27T11:11:44.642Z,86.18
2019-01-27T11:12:51.714Z,86.21
2019-01-27T11:15:04.772Z,86.19
2019-01-27T11:16:11.780Z,86.24
2019-01-27T11:17:18.553Z,86.22
2019-01-27T11:18:25.409Z,86.24
2019-01-27T11:19:32.237Z,86.25
2019-01-27T11:20:45.377Z,86.24
2019-01-27T11:21:45.835Z,86.29
2019-01-27T11:22:52.632Z,86.30
2019-01-27T11:23:59.664Z,86.32
2019-01-27T11:25:10.819Z,86.33
2019-01-27T11:26:13.662Z,86.36
2019-01-27T11:27:20.448Z,86.41
2019-01-27T11:28:27.152Z,86.43
2019-01-27T11:29:40.012Z,86.45
2019-01-27T11:30:52.243Z,86.47
2019-01-27T11:31:59.055Z,86.48
2019-01-27T11:34:17.857Z,86.47
2019-01-27T11:35:24.016Z,86.50
2019-01-27T11:36:29.704Z,86.52
2019-01-27T11:37:36.705Z,86.53
2019-01-27T11:38:48.957Z,86.54
2019-01-27T11:41:00.277Z,86.54
2019-01-27T11:42:07.248Z,86.55
2019-01-27T11:43:13.932Z,86.56
2019-01-27T11:44:26.292Z,86.55
2019-01-27T11:45:27.594Z,86.61
2019-01-27T11:46:34.268Z,86.60
2019-01-27T11:47:44.494Z,86.67
2019-01-27T11:48:50.200Z,86.69
2019-01-27T11:49:59.073Z,86.69
2019-01-27T11:51:04.295Z,86.67
2019-01-27T11:52:15.589Z,86.69
2019-01-27T11:53:17.992Z,86.76
2019-01-27T11:54:24.643Z,86.80
2019-01-27T11:55:31.460Z,86.80
2019-01-27T11:56:38.620Z,86.81
2019-01-27T11:57:45.446Z,86.77
2019-01-27T11:58:52.243Z,86.76
2019-01-27T11:59:59.008Z,86.74
2019-01-27T12:02:12.854Z,86.67
2019-01-27T12:03:19.740Z,86.72
2019-01-27T12:04:26.515Z,86.69
2019-01-27T12:05:33.316Z,86.74
2019-01-27T12:06:40.208Z,86.72
2019-01-27T12:07:47.140Z,86.75
2019-01-27T12:08:56.470Z,86.74
2019-01-27T12:10:01.908Z,86.72
2019-01-27T12:11:17.530Z,86.73
2019-01-27T12:12:14.782Z,86.75
2019-01-27T12:13:21.602Z,86.78
2019-01-27T12:14:28.432Z,86.78
2019-01-27T12:15:35.421Z,86.78
2019-01-27T12:16:42.185Z,86.78
2019-01-27T12:17:48.981Z,86.78
2019-01-27T12:18:55.858Z,86.79
2019-01-27T12:20:02.898Z,86.81
2019-01-27T12:21:09.675Z,86.86
2019-01-27T12:22:16.701Z,86.89
2019-01-27T12:23:23.655Z,86.92
2019-01-27T12:24:30.236Z,86.90
2019-01-27T12:25:37.060Z,86.87
2019-01-27T12:26:43.889Z,86.87
2019-01-27T12:27:50.977Z,86.87
2019-01-27T12:28:57.764Z,86.86
2019-01-27T12:30:04.571Z,86.85
2019-01-27T12:31:11.871Z,86.87
2019-01-27T12:32:18.870Z,86.84
2019-01-27T12:33:25.736Z,86.87
2019-01-27T12:34:32.645Z,86.93
2019-01-27T12:35:39.591Z,86.93
2019-01-27T12:36:46.348Z,86.93
2019-01-27T12:37:53.159Z,86.94
2019-01-27T12:38:59.973Z,86.96
2019-01-27T12:40:06.883Z,86.96
2019-01-27T12:41:15.198Z,86.98
2019-01-27T12:42:20.353Z,87.00
2019-01-27T12:43:27.671Z,87.04
2019-01-27T12:44:34.036Z,87.04
2019-01-27T12:45:41.795Z,87.09
2019-01-27T12:46:47.919Z,87.12
2019-01-27T12:47:54.989Z,87.18
2019-01-27T12:49:01.577Z,87.24
2019-01-27T12:50:14.450Z,87.28
2019-01-27T12:51:15.691Z,87.30
2019-01-27T12:52:24.793Z,87.29
2019-01-27T12:53:29.837Z,87.33
2019-01-27T12:54:37.662Z,87.36
2019-01-27T12:55:44.533Z,87.39
2019-01-27T12:56:50.972Z,87.42
2019-01-27T12:57:58.751Z,87.41
2019-01-27T12:59:04.832Z,87.41
2019-01-27T13:00:17.367Z,87.41
2019-01-27T13:01:27.414Z,87.38
2019-01-27T13:02:32.633Z,87.35
2019-01-27T13:04:39.143Z,87.35
2019-01-27T13:05:46.034Z,87.34
2019-01-27T13:06:52.935Z,87.30
2019-01-27T13:07:59.801Z,87.23
2019-01-27T13:09:06.668Z,87.20
2019-01-27T13:10:13.547Z,87.18
2019-01-27T13:11:20.535Z,87.12
2019-01-27T13:12:27.548Z,87.08
2019-01-27T13:13:34.826Z,87.05
2019-01-27T13:14:42.939Z,87.04
2019-01-27T13:15:48.629Z,87.05
2019-01-27T13:16:55.986Z,87.06
2019-01-27T13:18:02.466Z,87.05
2019-01-27T13:19:09.128Z,87.05
2019-01-27T13:20:19.573Z,87.04
2019-01-27T13:21:23.003Z,86.99
2019-01-27T13:22:29.928Z,86.95
2019-01-27T13:24:43.939Z,86.97
2019-01-27T13:25:51.109Z,86.97
2019-01-27T13:26:57.942Z,86.99
2019-01-27T13:28:04.732Z,86.95
2019-01-27T13:29:11.594Z,86.87
2019-01-27T13:30:18.401Z,86.83
2019-01-27T13:31:25.080Z,86.76
2019-01-27T13:32:32.011Z,86.70
2019-01-27T13:33:39.103Z,86.66
2019-01-27T13:34:45.939Z,86.62
2019-01-27T13:35:52.928Z,86.54
2019-01-27T13:36:59.724Z,86.48
2019-01-27T13:38:06.541Z,86.42
2019-01-27T13:39:13.383Z,86.35
2019-01-27T13:40:20.138Z,86.31
2019-01-27T13:41:27.067Z,86.22
2019-01-27T13:42:33.840Z,86.17
2019-01-27T13:43:40.674Z,86.09
2019-01-27T13:44:47.440Z,86.04
2019-01-27T13:45:54.184Z,86.01
